< < Back
Terminal Aerodrome Forecast


Current Version              Previous Versions:   1  2  3  4  5  6  7  8  9  

Terminal Aerodrome Forecast

569
FTUS42 KCHS 261900 AAA
TAFSAV
TAF AMD
KSAV 261904Z 2619/2718 29011G16KT P6SM SCT035
     FM262200 26006KT P6SM SKC
     FM270900 24007KT P6SM FEW050 WS015/25035KT
     FM271330 28015G25KT P6SM SKC=

Latest METAR

696
SAUS80 KWBC 270000 RRA
MTRSAV
METAR KSAV 262353Z 23003KT 10SM CLR 11/04 A3011 RMK AO2 SLP195 T01110039
10167 20100 52015


USA.gov is the U.S. government's official web portal to all federal, state and local government web resources and services.